Schedule Details

Flight Number: CPX447
Departure: Salt Lake City International Airport (KSLC) at N/A
Arrival: Minneapolis-St Paul International/Wold-Chamberlain Airport (KMSP) at N/A
Route: RUGGD1 OCS CKW MBW BFF ANW SSWAN TORGY3


Current Weather Information
KSLC 180554Z 16008KT 10SM BKN043 BKN080 M02/M04 A2985 RMK AO2 SLP120 4/001 60004 I6000 T10171044 10000 21033 53006
KMSP 180553Z 01009KT 10SM OVC120 M09/M14 A3021 RMK AO2 SLP244 T10941139 11056 21094 410331094 51021

Route Map